createdAt,value
2023-04-10T00:00:41.153Z,961.8642
2023-04-10T00:01:41.883Z,961.8600
2023-04-10T00:02:42.791Z,961.8530
2023-04-10T00:03:44.155Z,961.8454
2023-04-10T00:04:45.305Z,961.8381
2023-04-10T00:05:46.299Z,961.8285
2023-04-10T00:06:46.986Z,961.8142
2023-04-10T00:07:47.762Z,961.8062
2023-04-10T00:08:48.438Z,961.8080
2023-04-10T00:09:49.226Z,961.8112
2023-04-10T00:10:49.948Z,961.8065
2023-04-10T00:11:50.633Z,961.8104
2023-04-10T00:12:51.371Z,961.8015
2023-04-10T00:13:52.178Z,961.7911
2023-04-10T00:14:53.507Z,961.7819
2023-04-10T00:15:54.187Z,961.7754
2023-04-10T00:16:55.084Z,961.7747
2023-04-10T00:17:56.200Z,961.7823
2023-04-10T00:18:56.879Z,961.7866
2023-04-10T00:19:57.602Z,961.7935
2023-04-10T00:20:58.336Z,961.7969
2023-04-10T00:21:59.057Z,961.7961
2023-04-10T00:22:59.750Z,961.7903
2023-04-10T00:24:00.460Z,961.7854
2023-04-10T00:25:01.187Z,961.7789
2023-04-10T00:26:01.842Z,961.7792
2023-04-10T00:27:02.530Z,961.7781
2023-04-10T00:28:03.166Z,961.7808
2023-04-10T00:29:03.884Z,961.7750
2023-04-10T00:30:04.651Z,961.7747
2023-04-10T00:31:06.359Z,961.7781
2023-04-10T00:32:07.213Z,961.7792
2023-04-10T00:33:08.166Z,961.7708
2023-04-10T00:34:08.980Z,961.7500
2023-04-10T00:35:09.736Z,961.7253
2023-04-10T00:36:10.448Z,961.7092
2023-04-10T00:37:11.203Z,961.7023
2023-04-10T00:38:11.940Z,961.6880
2023-04-10T00:39:13.399Z,961.6873
2023-04-10T00:40:14.129Z,961.7004
2023-04-10T00:41:14.825Z,961.7108
2023-04-10T00:42:15.506Z,961.7231
2023-04-10T00:43:16.240Z,961.7300
2023-04-10T00:44:16.926Z,961.7303
2023-04-10T00:45:17.679Z,961.7277
2023-04-10T00:46:18.429Z,961.7181
2023-04-10T00:47:19.119Z,961.7119
2023-04-10T00:48:19.791Z,961.7154
2023-04-10T00:49:20.500Z,961.7184
2023-04-10T00:50:21.234Z,961.7234
2023-04-10T00:51:21.991Z,961.7404
2023-04-10T00:52:22.761Z,961.7546
2023-04-10T00:53:23.384Z,961.7700
2023-04-10T00:54:24.046Z,961.7858
2023-04-10T00:55:24.754Z,961.7904
2023-04-10T00:56:25.489Z,961.7981
2023-04-10T00:57:26.140Z,961.8019
2023-04-10T00:58:26.833Z,961.8108
2023-04-10T00:59:27.558Z,961.8100
2023-04-10T01:00:28.391Z,961.8058
2023-04-10T01:01:29.107Z,961.7992
2023-04-10T01:02:29.943Z,961.7992
2023-04-10T01:03:30.940Z,961.7985
2023-04-10T01:04:32.418Z,961.7919
2023-04-10T01:05:33.722Z,961.7938
2023-04-10T01:06:34.477Z,961.7892
2023-04-10T01:07:35.191Z,961.7938
2023-04-10T01:08:35.891Z,961.7900
2023-04-10T01:09:36.757Z,961.7938
2023-04-10T01:10:37.472Z,961.7877
2023-04-10T01:11:38.217Z,961.7869
2023-04-10T01:12:38.925Z,961.7911
2023-04-10T01:13:39.609Z,961.7861
2023-04-10T01:14:40.304Z,961.7834
2023-04-10T01:15:40.987Z,961.7861
2023-04-10T01:16:41.697Z,961.7915
2023-04-10T01:17:42.639Z,961.7942
2023-04-10T01:18:43.388Z,961.7911
2023-04-10T01:19:44.112Z,961.7827
2023-04-10T01:20:44.781Z,961.7615
2023-04-10T01:21:45.493Z,961.7396
2023-04-10T01:22:46.232Z,961.7300
2023-04-10T01:23:46.871Z,961.7154
2023-04-10T01:24:47.567Z,961.7039
2023-04-10T01:25:48.278Z,961.7027
2023-04-10T01:26:48.988Z,961.7042
2023-04-10T01:27:49.713Z,961.7100
2023-04-10T01:28:50.400Z,961.7169
2023-04-10T01:29:51.114Z,961.7200
2023-04-10T01:30:51.872Z,961.7166
2023-04-10T01:31:52.677Z,961.7166
2023-04-10T01:32:53.426Z,961.7142
2023-04-10T01:33:54.401Z,961.7139
2023-04-10T01:34:55.742Z,961.7150
2023-04-10T01:35:56.517Z,961.7031
2023-04-10T01:36:57.245Z,961.6985
2023-04-10T01:37:57.970Z,961.6950
2023-04-10T01:38:58.670Z,961.6977
2023-04-10T01:39:59.465Z,961.7031
2023-04-10T01:41:00.209Z,961.7035
2023-04-10T01:42:01.022Z,961.7031
2023-04-10T01:43:01.775Z,961.7012
2023-04-10T01:44:02.531Z,961.7031
2023-04-10T01:45:03.258Z,961.7004
2023-04-10T01:46:04.057Z,961.7104
2023-04-10T01:47:04.804Z,961.7285
2023-04-10T01:48:05.728Z,961.7369
2023-04-10T01:49:06.482Z,961.7515
2023-04-10T01:50:07.170Z,961.7581
2023-04-10T01:51:07.901Z,961.7639
2023-04-10T01:52:08.584Z,961.7670
2023-04-10T01:53:09.350Z,961.7697
2023-04-10T01:54:10.014Z,961.7697
2023-04-10T01:55:10.816Z,961.7654
2023-04-10T01:56:11.505Z,961.7654
2023-04-10T01:57:12.173Z,961.7662
2023-04-10T01:58:12.844Z,961.7673
2023-04-10T01:59:13.543Z,961.7769
2023-04-10T02:00:14.292Z,961.7762
2023-04-10T02:01:26.212Z,961.7792
2023-04-10T02:02:16.148Z,961.7738
2023-04-10T02:03:17.145Z,961.7697
2023-04-10T02:04:18.825Z,961.7573
2023-04-10T02:05:20.192Z,961.7430
2023-04-10T02:06:20.933Z,961.7288
2023-04-10T02:07:21.652Z,961.7184
2023-04-10T02:08:22.366Z,961.7112
2023-04-10T02:09:23.184Z,961.7092
2023-04-10T02:10:23.909Z,961.7104
2023-04-10T02:11:24.699Z,961.7192
2023-04-10T02:12:25.380Z,961.7354
2023-04-10T02:13:26.108Z,961.7473
2023-04-10T02:14:26.845Z,961.7411
2023-04-10T02:15:27.568Z,961.7380
2023-04-10T02:16:28.398Z,961.7269
2023-04-10T02:17:29.405Z,961.7177
2023-04-10T02:18:31.223Z,961.7058
2023-04-10T02:19:31.880Z,961.6954
2023-04-10T02:20:32.636Z,961.7015
2023-04-10T02:21:33.344Z,961.6927
2023-04-10T02:22:34.078Z,961.6965
2023-04-10T02:23:34.780Z,961.7154
2023-04-10T02:24:35.624Z,961.7223
2023-04-10T02:25:36.364Z,961.7330
2023-04-10T02:26:37.089Z,961.7277
2023-04-10T02:27:37.895Z,961.7246
2023-04-10T02:28:38.646Z,961.7077
2023-04-10T02:29:39.321Z,961.6896
2023-04-10T02:30:40.060Z,961.6819
2023-04-10T02:31:40.851Z,961.6658
2023-04-10T02:32:41.767Z,961.6577
2023-04-10T02:33:42.480Z,961.6631
2023-04-10T02:34:43.189Z,961.6696
2023-04-10T02:35:43.909Z,961.6700
2023-04-10T02:36:44.589Z,961.6723
2023-04-10T02:37:45.325Z,961.6777
2023-04-10T02:38:46.007Z,961.6769
2023-04-10T02:39:46.730Z,961.6808
2023-04-10T02:40:47.513Z,961.6920
2023-04-10T02:41:48.264Z,961.7069
2023-04-10T02:42:48.953Z,961.7169
2023-04-10T02:43:49.662Z,961.7369
2023-04-10T02:44:50.407Z,961.7577
2023-04-10T02:45:51.173Z,961.7708
2023-04-10T02:46:51.937Z,961.7900
2023-04-10T02:47:52.708Z,961.8015
2023-04-10T02:48:53.508Z,961.8011
2023-04-10T02:49:54.174Z,961.7973
2023-04-10T02:50:54.953Z,961.7977
2023-04-10T02:51:55.743Z,961.7981
2023-04-10T02:52:56.454Z,961.8015
2023-04-10T02:53:57.210Z,961.8046
2023-04-10T02:54:57.932Z,961.8120
2023-04-10T02:55:58.696Z,961.8215
2023-04-10T02:56:59.469Z,961.8250
2023-04-10T02:58:00.201Z,961.8212
2023-04-10T02:59:00.929Z,961.8188
2023-04-10T03:00:01.654Z,961.8220
2023-04-10T03:01:02.422Z,961.8273
2023-04-10T03:02:03.327Z,961.8385
2023-04-10T03:03:04.441Z,961.8454
2023-04-10T03:04:05.383Z,961.8585
2023-04-10T03:05:06.242Z,961.8661
2023-04-10T03:06:08.041Z,961.8877
2023-04-10T03:07:08.981Z,961.8947
2023-04-10T03:08:09.747Z,961.9011
2023-04-10T03:09:10.520Z,961.9042
2023-04-10T03:10:11.252Z,961.9000
2023-04-10T03:11:12.088Z,961.8985
2023-04-10T03:12:12.865Z,961.8873
2023-04-10T03:13:13.677Z,961.8877
2023-04-10T03:14:14.461Z,961.8950
2023-04-10T03:15:15.267Z,961.8923
2023-04-10T03:16:16.056Z,961.8773
2023-04-10T03:17:16.861Z,961.8785
2023-04-10T03:18:17.675Z,961.8723
2023-04-10T03:19:18.433Z,961.8669
2023-04-10T03:20:19.239Z,961.8577
2023-04-10T03:21:19.998Z,961.8439
2023-04-10T03:22:20.786Z,961.8273
2023-04-10T03:23:21.610Z,961.8000
2023-04-10T03:24:22.461Z,961.7777
2023-04-10T03:25:23.253Z,961.7581
2023-04-10T03:26:24.171Z,961.7388
2023-04-10T03:27:24.950Z,961.7181
2023-04-10T03:28:25.708Z,961.7020
2023-04-10T03:29:26.548Z,961.7020
2023-04-10T03:30:27.313Z,961.6992
2023-04-10T03:31:28.147Z,961.7092
2023-04-10T03:32:28.954Z,961.7246
2023-04-10T03:33:29.783Z,961.7280
2023-04-10T03:34:30.571Z,961.7231
2023-04-10T03:35:31.474Z,961.7203
2023-04-10T03:36:32.370Z,961.7158
2023-04-10T03:37:33.123Z,961.7127
2023-04-10T03:38:33.969Z,961.7234
2023-04-10T03:39:34.731Z,961.7246
2023-04-10T03:40:35.807Z,961.7350
2023-04-10T03:41:36.612Z,961.7338
2023-04-10T03:42:37.410Z,961.7408
2023-04-10T03:43:38.194Z,961.7373
2023-04-10T03:44:38.951Z,961.7380
2023-04-10T03:45:39.708Z,961.7311
2023-04-10T03:46:40.507Z,961.7192
2023-04-10T03:47:41.307Z,961.7115
2023-04-10T03:48:42.164Z,961.6965
2023-04-10T03:49:42.934Z,961.6870
2023-04-10T03:50:43.771Z,961.6700
2023-04-10T03:51:44.586Z,961.6658
2023-04-10T03:52:45.355Z,961.6711
2023-04-10T03:53:46.132Z,961.6715
2023-04-10T03:54:46.912Z,961.6742
2023-04-10T03:55:47.689Z,961.6758
2023-04-10T03:56:48.497Z,961.6754
2023-04-10T03:57:49.306Z,961.6661
2023-04-10T03:58:50.131Z,961.6573
2023-04-10T03:59:50.873Z,961.6396
2023-04-10T04:00:51.658Z,961.6212
2023-04-10T04:01:52.686Z,961.5931
2023-04-10T04:02:53.626Z,961.5658
2023-04-10T04:03:54.970Z,961.5530
2023-04-10T04:04:57.299Z,961.5415
2023-04-10T04:05:58.017Z,961.5377
2023-04-10T04:06:58.839Z,961.5350
2023-04-10T04:07:59.721Z,961.5408
2023-04-10T04:09:00.456Z,961.5504
2023-04-10T04:10:01.254Z,961.5550
2023-04-10T04:11:02.054Z,961.5627
2023-04-10T04:12:02.914Z,961.5742
2023-04-10T04:13:03.694Z,961.5754
2023-04-10T04:14:04.454Z,961.5800
2023-04-10T04:15:05.238Z,961.5850
2023-04-10T04:16:06.136Z,961.5919
2023-04-10T04:17:06.951Z,961.6000
2023-04-10T04:18:07.764Z,961.6031
2023-04-10T04:19:08.530Z,961.6015
2023-04-10T04:20:09.357Z,961.6027
2023-04-10T04:21:10.162Z,961.5958
2023-04-10T04:22:10.999Z,961.5916
2023-04-10T04:23:11.788Z,961.5904
2023-04-10T04:24:12.586Z,961.5885
2023-04-10T04:25:13.402Z,961.5881
2023-04-10T04:26:14.186Z,961.5908
2023-04-10T04:27:14.930Z,961.6003
2023-04-10T04:28:15.673Z,961.6046
2023-04-10T04:29:16.584Z,961.6108
2023-04-10T04:30:17.394Z,961.6300
2023-04-10T04:31:18.258Z,961.6481
2023-04-10T04:32:19.268Z,961.6700
2023-04-10T04:33:20.313Z,961.6942
2023-04-10T04:34:21.097Z,961.7069
2023-04-10T04:35:21.847Z,961.7184
2023-04-10T04:36:22.615Z,961.7196
2023-04-10T04:37:23.452Z,961.7234
2023-04-10T04:38:24.215Z,961.7369
2023-04-10T04:39:25.054Z,961.7477
2023-04-10T04:40:25.773Z,961.7535
2023-04-10T04:41:26.571Z,961.7646
2023-04-10T04:42:27.386Z,961.7739
2023-04-10T04:43:28.299Z,961.7712
2023-04-10T04:44:29.051Z,961.7697
2023-04-10T04:45:29.846Z,961.7689
2023-04-10T04:46:30.698Z,961.7723
2023-04-10T04:47:31.567Z,961.7839
2023-04-10T04:48:32.450Z,961.7896
2023-04-10T04:49:33.275Z,961.8027
2023-04-10T04:50:34.119Z,961.8135
2023-04-10T04:51:34.855Z,961.8254
2023-04-10T04:52:35.730Z,961.8242
2023-04-10T04:53:36.529Z,961.8285
2023-04-10T04:54:37.392Z,961.8385
2023-04-10T04:55:38.156Z,961.8400
2023-04-10T04:56:38.990Z,961.8481
2023-04-10T04:57:39.770Z,961.8573
2023-04-10T04:58:40.661Z,961.8635
2023-04-10T04:59:41.505Z,961.8765
2023-04-10T05:00:42.350Z,961.8965
2023-04-10T05:01:43.260Z,961.9119
2023-04-10T05:02:44.372Z,961.9315
2023-04-10T05:03:45.550Z,961.9458
2023-04-10T05:04:46.994Z,961.9435
2023-04-10T05:05:47.836Z,961.9435
2023-04-10T05:06:48.654Z,961.9385
2023-04-10T05:07:49.801Z,961.9238
2023-04-10T05:08:50.612Z,961.9046
2023-04-10T05:09:51.438Z,961.8839
2023-04-10T05:10:52.251Z,961.8680
2023-04-10T05:11:53.051Z,961.8608
2023-04-10T05:12:53.917Z,961.8650
2023-04-10T05:13:54.699Z,961.8765
2023-04-10T05:14:55.482Z,961.8900
2023-04-10T05:15:56.262Z,961.8969
2023-04-10T05:16:57.173Z,961.9046
2023-04-10T05:17:58.170Z,961.9108
2023-04-10T05:18:59.207Z,961.9039
2023-04-10T05:20:00.313Z,961.8973
2023-04-10T05:21:01.077Z,961.8877
2023-04-10T05:22:01.869Z,961.8765
2023-04-10T05:23:02.637Z,961.8680
2023-04-10T05:24:03.484Z,961.8546
2023-04-10T05:25:04.268Z,961.8523
2023-04-10T05:26:05.056Z,961.8519
2023-04-10T05:27:05.804Z,961.8561
2023-04-10T05:28:06.672Z,961.8577
2023-04-10T05:29:07.493Z,961.8577
2023-04-10T05:30:08.245Z,961.8569
2023-04-10T05:31:09.107Z,961.8565
2023-04-10T05:32:09.883Z,961.8535
2023-04-10T05:33:10.655Z,961.8538
2023-04-10T05:34:11.512Z,961.8577
2023-04-10T05:35:12.410Z,961.8700
2023-04-10T05:36:13.321Z,961.8862
2023-04-10T05:37:14.236Z,961.9034
2023-04-10T05:38:15.030Z,961.9215
2023-04-10T05:39:15.805Z,961.9273
2023-04-10T05:40:16.594Z,961.9254
2023-04-10T05:41:17.351Z,961.9219
2023-04-10T05:42:18.159Z,961.9135
2023-04-10T05:43:18.916Z,961.8958
2023-04-10T05:44:19.736Z,961.8842
2023-04-10T05:45:20.557Z,961.8823
2023-04-10T05:46:21.412Z,961.8781
2023-04-10T05:47:22.167Z,961.8896
2023-04-10T05:48:23.207Z,961.9039
2023-04-10T05:49:24.053Z,961.9150
2023-04-10T05:50:24.887Z,961.9300
2023-04-10T05:51:25.626Z,961.9377
2023-04-10T05:52:26.527Z,961.9370
2023-04-10T05:53:27.291Z,961.9246
2023-04-10T05:54:28.097Z,961.9146
2023-04-10T05:55:28.862Z,961.9146
2023-04-10T05:56:29.753Z,961.9196
2023-04-10T05:57:30.579Z,961.9196
2023-04-10T05:58:31.368Z,961.9146
2023-04-10T05:59:32.176Z,961.9138
2023-04-10T06:00:33.074Z,961.9173
2023-04-10T06:01:33.968Z,961.9119
2023-04-10T06:02:34.889Z,961.9123
2023-04-10T06:03:36.128Z,961.9211
2023-04-10T06:04:37.277Z,961.9335
2023-04-10T06:05:38.737Z,961.9388
2023-04-10T06:06:39.546Z,961.9481
2023-04-10T06:07:40.409Z,961.9539
2023-04-10T06:08:41.274Z,961.9634
2023-04-10T06:09:42.089Z,961.9708
2023-04-10T06:10:43.902Z,961.9869
2023-04-10T06:11:44.715Z,962.0139
2023-04-10T06:12:45.518Z,962.0408
2023-04-10T06:13:46.359Z,962.0585
2023-04-10T06:14:47.127Z,962.0665
2023-04-10T06:15:47.930Z,962.0815
2023-04-10T06:16:48.814Z,962.0800
2023-04-10T06:17:49.727Z,962.0815
2023-04-10T06:18:50.570Z,962.0804
2023-04-10T06:19:51.360Z,962.0792
2023-04-10T06:20:52.169Z,962.0831
2023-04-10T06:21:54.492Z,962.0754
2023-04-10T06:22:53.620Z,962.0768
2023-04-10T06:23:54.710Z,962.0862
2023-04-10T06:24:56.038Z,962.0892
2023-04-10T06:25:57.086Z,962.1000
2023-04-10T06:26:57.917Z,962.1088
2023-04-10T06:27:59.282Z,962.1138
2023-04-10T06:29:00.382Z,962.1188
2023-04-10T06:30:01.207Z,962.1219
2023-04-10T06:31:02.091Z,962.1242
2023-04-10T06:32:02.882Z,962.1080
2023-04-10T06:33:03.716Z,962.1104
2023-04-10T06:34:04.583Z,962.0954
2023-04-10T06:35:05.365Z,962.0869
2023-04-10T06:36:06.178Z,962.0850
2023-04-10T06:37:07.021Z,962.0869
2023-04-10T06:38:07.850Z,962.0916
2023-04-10T06:39:08.653Z,962.1077
2023-04-10T06:40:09.517Z,962.1154
2023-04-10T06:41:10.290Z,962.1235
2023-04-10T06:42:11.070Z,962.1212
2023-04-10T06:43:11.794Z,962.1138
2023-04-10T06:44:12.585Z,962.1046
2023-04-10T06:45:13.305Z,962.0892
2023-04-10T06:46:14.056Z,962.0800
2023-04-10T06:47:14.936Z,962.0715
2023-04-10T06:48:15.721Z,962.0735
2023-04-10T06:49:16.601Z,962.0777
2023-04-10T06:50:17.437Z,962.0892
2023-04-10T06:51:18.226Z,962.0939
2023-04-10T06:52:19.028Z,962.1023
2023-04-10T06:53:19.962Z,962.1000
2023-04-10T06:54:20.703Z,962.0892
2023-04-10T06:55:21.495Z,962.0758
2023-04-10T06:56:22.288Z,962.0635
2023-04-10T06:57:23.086Z,962.0527
2023-04-10T06:58:23.900Z,962.0411
2023-04-10T06:59:24.719Z,962.0300
2023-04-10T07:00:25.471Z,962.0073
2023-04-10T07:01:26.657Z,961.9888
2023-04-10T07:02:27.685Z,961.9865
2023-04-10T07:03:28.668Z,961.9696
2023-04-10T07:04:29.426Z,961.9627
2023-04-10T07:05:30.163Z,961.9585
2023-04-10T07:06:30.935Z,961.9565
2023-04-10T07:07:31.697Z,961.9623
2023-04-10T07:08:32.443Z,961.9639
2023-04-10T07:09:33.192Z,961.9589
2023-04-10T07:10:33.941Z,961.9485
2023-04-10T07:11:34.717Z,961.9577
2023-04-10T07:12:35.620Z,961.9715
2023-04-10T07:13:36.380Z,961.9850
2023-04-10T07:14:37.196Z,962.0023
2023-04-10T07:15:37.891Z,962.0104
2023-04-10T07:16:38.699Z,962.0177
2023-04-10T07:17:39.468Z,962.0485
2023-04-10T07:18:40.270Z,962.0646
2023-04-10T07:19:41.093Z,962.0831
2023-04-10T07:20:41.818Z,962.0954
2023-04-10T07:21:42.664Z,962.0958
2023-04-10T07:22:43.352Z,962.0950
2023-04-10T07:23:44.114Z,962.0862
2023-04-10T07:24:44.846Z,962.0627
2023-04-10T07:25:45.511Z,962.0646
2023-04-10T07:26:46.200Z,962.0708
2023-04-10T07:27:46.901Z,962.0569
2023-04-10T07:28:47.656Z,962.0366
2023-04-10T07:29:48.296Z,962.0323
2023-04-10T07:30:49.021Z,962.0297
2023-04-10T07:31:49.842Z,962.0239
2023-04-10T07:32:50.942Z,962.0212
2023-04-10T07:33:52.323Z,962.0247
2023-04-10T07:34:53.042Z,962.0212
2023-04-10T07:35:53.777Z,962.0223
2023-04-10T07:36:54.451Z,962.0262
2023-04-10T07:37:55.113Z,962.0496
2023-04-10T07:38:55.959Z,962.0739
2023-04-10T07:39:57.040Z,962.0908
2023-04-10T07:40:57.759Z,962.0966
2023-04-10T07:41:58.449Z,962.1019
2023-04-10T07:42:59.093Z,962.1053
2023-04-10T07:43:59.817Z,962.1177
2023-04-10T07:45:00.585Z,962.1188
2023-04-10T07:46:01.498Z,962.1150
2023-04-10T07:47:02.460Z,962.1185
2023-04-10T07:48:03.355Z,962.1008
2023-04-10T07:49:04.562Z,962.0942
2023-04-10T07:50:04.719Z,962.0917
2023-04-10T07:51:05.490Z,962.0923
2023-04-10T07:52:06.214Z,962.1073
2023-04-10T07:53:06.995Z,962.1146
2023-04-10T07:54:07.722Z,962.1161
2023-04-10T07:55:08.498Z,962.1230
2023-04-10T07:56:09.237Z,962.1300
2023-04-10T07:57:10.030Z,962.1242
2023-04-10T07:58:10.802Z,962.1208
2023-04-10T07:59:11.594Z,962.1308
2023-04-10T08:00:12.405Z,962.1281
2023-04-10T08:01:13.193Z,962.1235
2023-04-10T08:02:14.089Z,962.1304
2023-04-10T08:03:15.333Z,962.1246
2023-04-10T08:04:17.135Z,962.1177
2023-04-10T08:05:18.948Z,962.1281
2023-04-10T08:06:19.895Z,962.1362
2023-04-10T08:07:20.638Z,962.1546
2023-04-10T08:08:21.410Z,962.1588
2023-04-10T08:09:22.221Z,962.1561
2023-04-10T08:10:22.915Z,962.1420
2023-04-10T08:11:23.819Z,962.1469
2023-04-10T08:12:24.514Z,962.1542
2023-04-10T08:13:25.343Z,962.1539
2023-04-10T08:14:26.041Z,962.1450
2023-04-10T08:15:26.783Z,962.1442
2023-04-10T08:16:27.522Z,962.1450
2023-04-10T08:17:28.302Z,962.1458
2023-04-10T08:18:29.005Z,962.1454
2023-04-10T08:19:29.712Z,962.1412
2023-04-10T08:20:30.445Z,962.1420
2023-04-10T08:21:31.155Z,962.1370
2023-04-10T08:22:31.885Z,962.1262
2023-04-10T08:23:32.638Z,962.1111
2023-04-10T08:24:33.319Z,962.1069
2023-04-10T08:25:34.134Z,962.0934
2023-04-10T08:26:34.867Z,962.0984
2023-04-10T08:27:35.615Z,962.1008
2023-04-10T08:28:36.526Z,962.1154
2023-04-10T08:29:37.418Z,962.1208
2023-04-10T08:30:38.241Z,962.1230
2023-04-10T08:31:39.015Z,962.1111
2023-04-10T08:32:40.937Z,962.0996
2023-04-10T08:33:41.701Z,962.0923
2023-04-10T08:34:42.870Z,962.0819
2023-04-10T08:35:43.599Z,962.0789
2023-04-10T08:36:44.477Z,962.0754
2023-04-10T08:37:49.601Z,962.0789
2023-04-10T08:38:46.184Z,962.0867
2023-04-10T08:39:46.926Z,962.0900
2023-04-10T08:40:47.671Z,962.1100
2023-04-10T08:41:48.501Z,962.1270
2023-04-10T08:42:49.234Z,962.1308
2023-04-10T08:43:50.213Z,962.1442
2023-04-10T08:44:51.104Z,962.1573
2023-04-10T08:45:51.920Z,962.1653
2023-04-10T08:46:52.687Z,962.1777
2023-04-10T08:47:53.451Z,962.1873
2023-04-10T08:48:54.179Z,962.1850
2023-04-10T08:49:54.892Z,962.1823
2023-04-10T08:50:55.658Z,962.1862
2023-04-10T08:51:56.415Z,962.1819
2023-04-10T08:52:57.143Z,962.1746
2023-04-10T08:53:57.914Z,962.1650
2023-04-10T08:54:58.710Z,962.1623
2023-04-10T08:55:59.399Z,962.1420
2023-04-10T08:57:00.150Z,962.1373
2023-04-10T08:58:01.904Z,962.1212
2023-04-10T08:59:02.973Z,962.1104
2023-04-10T09:00:15.954Z,962.1027
2023-04-10T09:01:04.952Z,962.0872
2023-04-10T09:02:05.818Z,962.0735
2023-04-10T09:03:06.756Z,962.0519
2023-04-10T09:04:07.742Z,962.0342
2023-04-10T09:05:08.717Z,962.0142
2023-04-10T09:06:09.432Z,961.9992
2023-04-10T09:07:10.236Z,962.0012
2023-04-10T09:08:10.937Z,961.9965
2023-04-10T09:09:11.749Z,962.0020
2023-04-10T09:10:12.483Z,961.9962
2023-04-10T09:11:13.369Z,961.9850
2023-04-10T09:12:14.486Z,961.9823
2023-04-10T09:13:15.297Z,961.9880
2023-04-10T09:14:16.173Z,962.0185
2023-04-10T09:15:17.066Z,962.0239
2023-04-10T09:16:17.861Z,962.0442
2023-04-10T09:17:18.599Z,962.0285
2023-04-10T09:18:19.425Z,962.0323
2023-04-10T09:19:20.422Z,962.0208
2023-04-10T09:20:21.190Z,962.0020
2023-04-10T09:21:22.171Z,961.9777
2023-04-10T09:22:22.887Z,961.9562
2023-04-10T09:23:23.668Z,961.9512
2023-04-10T09:24:24.488Z,961.9481
2023-04-10T09:25:25.198Z,961.9408
2023-04-10T09:26:25.965Z,961.9192
2023-04-10T09:27:26.892Z,961.9315
2023-04-10T09:28:27.692Z,961.9539
2023-04-10T09:29:28.573Z,961.9350
2023-04-10T09:30:29.493Z,961.9235
2023-04-10T09:31:30.557Z,961.9185
2023-04-10T09:32:31.386Z,961.9081
2023-04-10T09:33:32.132Z,961.9019
2023-04-10T09:34:32.905Z,961.8962
2023-04-10T09:35:33.822Z,961.9081
2023-04-10T09:36:34.681Z,961.9219
2023-04-10T09:37:35.414Z,961.9370
2023-04-10T09:38:36.237Z,961.9427
2023-04-10T09:39:37.004Z,961.9512
2023-04-10T09:40:37.845Z,961.9427
2023-04-10T09:41:38.698Z,961.9280
2023-04-10T09:42:39.619Z,961.9031
2023-04-10T09:43:40.351Z,961.8804
2023-04-10T09:44:41.112Z,961.8712
2023-04-10T09:45:41.829Z,961.8696
2023-04-10T09:46:42.898Z,961.8511
2023-04-10T09:47:43.686Z,961.8496
2023-04-10T09:48:44.448Z,961.8339
2023-04-10T09:49:46.237Z,961.8150
2023-04-10T09:50:46.953Z,961.7954
2023-04-10T09:51:47.893Z,961.7520
2023-04-10T09:52:48.686Z,961.7350
2023-04-10T09:53:49.361Z,961.7188
2023-04-10T09:54:50.294Z,961.7258
2023-04-10T09:55:50.981Z,961.7280
2023-04-10T09:56:51.712Z,961.7211
2023-04-10T09:57:52.423Z,961.7354
2023-04-10T09:58:53.598Z,961.7261
2023-04-10T09:59:54.882Z,961.6942
2023-04-10T10:00:55.365Z,961.6940
2023-04-10T10:01:56.180Z,961.6719
2023-04-10T10:02:57.230Z,961.6558
2023-04-10T10:03:58.340Z,961.6354
2023-04-10T10:05:00.197Z,961.6019
2023-04-10T10:06:01.008Z,961.5765
2023-04-10T10:07:01.903Z,961.5442
2023-04-10T10:08:03.654Z,961.5181
2023-04-10T10:09:04.457Z,961.4969
2023-04-10T10:10:05.214Z,961.4746
2023-04-10T10:11:05.936Z,961.4639
2023-04-10T10:12:06.789Z,961.4592
2023-04-10T10:13:07.419Z,961.4465
2023-04-10T10:14:08.124Z,961.4300
2023-04-10T10:15:08.850Z,961.4277
2023-04-10T10:16:09.601Z,961.4323
2023-04-10T10:17:10.578Z,961.4258
2023-04-10T10:18:11.297Z,961.4092
2023-04-10T10:19:12.309Z,961.3862
2023-04-10T10:20:13.193Z,961.3654
2023-04-10T10:21:14.114Z,961.3538
2023-04-10T10:22:14.830Z,961.3466
2023-04-10T10:23:15.537Z,961.3262
2023-04-10T10:24:16.236Z,961.2985
2023-04-10T10:25:16.953Z,961.2861
2023-04-10T10:26:17.645Z,961.2681
2023-04-10T10:27:18.405Z,961.2620
2023-04-10T10:28:19.160Z,961.2300
2023-04-10T10:29:19.968Z,961.2208
2023-04-10T10:30:29.454Z,961.2223
2023-04-10T10:31:21.983Z,961.2177
2023-04-10T10:32:22.797Z,961.2166
2023-04-10T10:33:23.524Z,961.2227
2023-04-10T10:34:24.289Z,961.2192
2023-04-10T10:35:26.355Z,961.2069
2023-04-10T10:36:26.048Z,961.1887
2023-04-10T10:37:26.729Z,961.1719
2023-04-10T10:38:27.476Z,961.1447
2023-04-10T10:39:28.295Z,961.1069
2023-04-10T10:40:28.999Z,961.0842
2023-04-10T10:41:29.670Z,961.0654
2023-04-10T10:42:30.408Z,961.0558
2023-04-10T10:43:31.119Z,961.0403
2023-04-10T10:44:31.821Z,961.0381
2023-04-10T10:45:32.583Z,961.0231
2023-04-10T10:46:33.249Z,961.0092
2023-04-10T10:47:34.000Z,960.9880
2023-04-10T10:48:35.788Z,960.9715
2023-04-10T10:49:36.525Z,960.9600
2023-04-10T10:50:37.324Z,960.9496
2023-04-10T10:51:38.028Z,960.9315
2023-04-10T10:52:38.733Z,960.9181
2023-04-10T10:53:39.559Z,960.8992
2023-04-10T10:54:50.048Z,960.8862
2023-04-10T10:55:41.233Z,960.8681
2023-04-10T10:56:41.985Z,960.8523
2023-04-10T10:57:42.699Z,960.8312
2023-04-10T10:58:43.477Z,960.8270
2023-04-10T10:59:44.141Z,960.8165
2023-04-10T11:00:44.921Z,960.8030
2023-04-10T11:01:45.073Z,960.8160
2023-04-10T11:02:46.315Z,960.8192
2023-04-10T11:03:47.308Z,960.8312
2023-04-10T11:04:48.400Z,960.8469
2023-04-10T11:05:49.393Z,960.8608
2023-04-10T11:06:50.091Z,960.8677
2023-04-10T11:07:50.724Z,960.8642
2023-04-10T11:08:51.457Z,960.8523
2023-04-10T11:09:52.198Z,960.8458
2023-04-10T11:10:53.058Z,960.8300
2023-04-10T11:11:53.774Z,960.8246
2023-04-10T11:12:54.687Z,960.8150
2023-04-10T11:13:55.344Z,960.8130
2023-04-10T11:14:56.018Z,960.7900
2023-04-10T11:15:56.720Z,960.7804
2023-04-10T11:16:57.473Z,960.7866
2023-04-10T11:17:58.565Z,960.7927
2023-04-10T11:19:13.065Z,960.7965
2023-04-10T11:20:00.375Z,960.7943
2023-04-10T11:21:01.026Z,960.7927
2023-04-10T11:22:01.726Z,960.8038
2023-04-10T11:23:02.405Z,960.8058
2023-04-10T11:24:03.080Z,960.7858
2023-04-10T11:25:03.953Z,960.7866
2023-04-10T11:26:04.637Z,960.7712
2023-04-10T11:27:05.290Z,960.7662
2023-04-10T11:28:06.076Z,960.7550
2023-04-10T11:29:06.705Z,960.7500
2023-04-10T11:30:07.387Z,960.7139
2023-04-10T11:31:08.026Z,960.6850
2023-04-10T11:32:08.774Z,960.6692
2023-04-10T11:33:09.822Z,960.6769
2023-04-10T11:34:10.569Z,960.6588
2023-04-10T11:35:11.215Z,960.6631
2023-04-10T11:36:11.859Z,960.6742
2023-04-10T11:37:13.477Z,960.6723
2023-04-10T11:38:14.148Z,960.6646
2023-04-10T11:39:14.745Z,960.6650
2023-04-10T11:40:15.379Z,960.6473
2023-04-10T11:41:16.004Z,960.6450
2023-04-10T11:42:16.644Z,960.6423
2023-04-10T11:43:17.316Z,960.6342
2023-04-10T11:44:17.955Z,960.6292
2023-04-10T11:45:18.601Z,960.6404
2023-04-10T11:46:19.326Z,960.6385
2023-04-10T11:47:19.971Z,960.6357
2023-04-10T11:48:20.592Z,960.6088
2023-04-10T11:49:21.296Z,960.5988
2023-04-10T11:50:21.912Z,960.6023
2023-04-10T11:51:22.526Z,960.5815
2023-04-10T11:52:23.120Z,960.5731
2023-04-10T11:53:23.686Z,960.5900
2023-04-10T11:54:24.247Z,960.5889